Time;durP1;ratioP1;P1;durP2;ratioP2;P2;SDS_P1;SDS_P2;PMS_P1;PMS_P2;Temp;Humidity;BMP_temperature;BMP_pressure;BME280_temperature;BME280_humidity;BME280_pressure;Samples;Min_cycle;Max_cycle;Signal;HPM_P1;HPM_P2
2022/02/18 00:01:22;;;;;;;3.57;0.80;;;;;;;8.41;66.17;98565.81;5132820;27;41857;-84
2022/02/18 00:03:50;;;;;;;3.37;0.83;;;;;;;8.31;65.90;98552.28;5115725;27;40622;-88
2022/02/18 00:06:17;;;;;;;2.37;0.77;;;;;;;8.41;66.29;98558.75;5150084;27;42415;-85
2022/02/18 00:08:46;;;;;;;3.77;0.87;;;;;;;8.40;66.84;98566.78;5132679;27;41963;-85
2022/02/18 00:11:14;;;;;;;2.80;0.67;;;;;;;8.36;66.94;98554.69;5132546;27;42642;-82
2022/02/18 00:13:42;;;;;;;1.67;0.63;;;;;;;8.38;66.92;98568.66;5132912;27;39435;-87
2022/02/18 00:16:09;;;;;;;3.67;1.07;;;;;;;8.34;66.62;98567.13;5132489;27;41664;-78
2022/02/18 00:18:37;;;;;;;3.67;0.80;;;;;;;8.29;66.81;98568.19;5115460;27;43622;-86
2022/02/18 00:21:04;;;;;;;5.43;0.90;;;;;;;8.40;66.90;98586.09;5132488;27;41715;-84
2022/02/18 00:23:33;;;;;;;1.73;0.77;;;;;;;8.28;66.60;98563.03;5133102;27;40071;-87
2022/02/18 00:26:01;;;;;;;2.27;1.07;;;;;;;8.29;66.91;98549.72;5114525;27;40416;-87
2022/02/18 00:28:30;;;;;;;4.43;1.13;;;;;;;8.41;66.72;98563.16;5132179;27;43533;-85
2022/02/18 00:30:57;;;;;;;2.67;0.80;;;;;;;8.40;66.51;98556.22;5132288;27;42235;-78
2022/02/18 00:33:25;;;;;;;3.93;0.90;;;;;;;8.26;66.57;98542.00;5132590;27;39001;-86
2022/02/18 00:35:52;;;;;;;2.57;0.80;;;;;;;8.45;66.17;98569.97;5132097;27;41745;-84
2022/02/18 00:38:19;;;;;;;5.37;1.70;;;;;;;8.40;66.34;98550.94;5114860;27;43954;-83
2022/02/18 00:40:47;;;;;;;6.70;1.23;;;;;;;8.58;66.39;98563.91;5132271;27;42278;-83
2022/02/18 00:43:14;;;;;;;9.30;0.97;;;;;;;8.52;66.45;98539.66;5133695;27;39883;-81
2022/02/18 00:45:43;;;;;;;3.77;1.50;;;;;;;8.69;66.73;98563.25;5115014;27;42932;-83
2022/02/18 00:48:11;;;;;;;4.93;1.00;;;;;;;8.77;66.84;98573.38;5132211;27;41594;-85
2022/02/18 00:50:39;;;;;;;2.67;1.20;;;;;;;8.80;66.28;98571.38;5132305;27;42256;-81
2022/02/18 00:53:07;;;;;;;2.00;1.03;;;;;;;8.81;66.51;98573.09;5131941;27;42482;-84
2022/02/18 00:55:34;;;;;;;3.53;1.10;;;;;;;8.65;66.75;98543.28;5132286;27;42702;-86
2022/02/18 00:58:02;;;;;;;3.60;0.97;;;;;;;8.83;66.84;98576.50;5113443;27;41693;-81
2022/02/18 01:00:29;;;;;;;3.83;1.47;;;;;;;8.83;66.86;98587.06;5130937;27;42915;-85
2022/02/18 01:02:58;;;;;;;6.07;1.10;;;;;;;8.81;67.27;98583.63;5132175;27;39921;-79
2022/02/18 01:05:25;;;;;;;5.83;1.20;;;;;;;8.73;67.72;98575.34;5127763;27;41846;-85
2022/02/18 01:07:53;;;;;;;5.93;1.70;;;;;;;8.80;67.58;98581.94;5111411;27;43860;-82
2022/02/18 01:10:20;;;;;;;3.30;1.10;;;;;;;8.83;68.02;98587.06;5117878;27;42442;-85
2022/02/18 01:12:48;;;;;;;5.80;1.07;;;;;;;8.85;68.31;98577.25;5131993;27;40823;-85
2022/02/18 01:15:15;;;;;;;4.03;1.17;;;;;;;8.84;68.33;98578.19;5126035;27;41911;-84
2022/02/18 01:17:44;;;;;;;6.03;1.80;;;;;;;8.99;68.43;98582.56;5114576;27;42784;-86
2022/02/18 01:20:13;;;;;;;6.20;1.60;;;;;;;9.06;68.15;98582.16;5114517;27;41032;-85
2022/02/18 01:22:41;;;;;;;8.17;1.70;;;;;;;9.07;68.36;98568.03;5107254;28;38970;-87
2022/02/18 01:25:10;;;;;;;4.27;0.90;;;;;;;9.16;68.13;98572.72;5099830;27;40619;-82
2022/02/18 01:27:39;;;;;;;2.37;1.17;;;;;;;9.19;68.13;98567.28;5110689;28;42782;-82
2022/02/18 01:30:08;;;;;;;8.57;1.53;;;;;;;9.22;67.97;98567.94;5094185;28;41109;-82
2022/02/18 01:32:35;;;;;;;7.57;2.20;;;;;;;9.23;68.01;98558.22;5094252;28;39931;-83
2022/02/18 01:35:03;;;;;;;8.00;1.60;;;;;;;9.35;68.00;98568.03;5113510;27;41723;-85
2022/02/18 01:37:32;;;;;;;9.00;1.67;;;;;;;9.20;67.33;98529.34;5096992;28;41743;-83
2022/02/18 01:39:59;;;;;;;6.43;1.97;;;;;;;9.36;67.33;98553.88;5133225;27;43181;-86
2022/02/18 01:42:26;;;;;;;5.47;1.60;;;;;;;9.47;67.07;98569.91;5118045;27;39800;-84
2022/02/18 01:44:54;;;;;;;5.57;1.37;;;;;;;9.52;67.23;98565.16;5135684;27;41652;-81
2022/02/18 01:47:24;;;;;;;6.30;1.27;;;;;;;9.51;66.41;98555.56;5135176;27;41784;-81
2022/02/18 01:49:54;;;;;;;3.90;1.10;;;;;;;9.60;66.47;98565.56;5135053;27;41404;-89
2022/02/18 01:52:26;;;;;;;5.73;1.53;;;;;;;9.57;66.63;98549.88;5117436;27;38885;-82
2022/02/18 01:54:55;;;;;;;6.57;1.87;;;;;;;9.61;66.17;98575.19;5135120;27;41777;-87
2022/02/18 01:57:23;;;;;;;3.53;1.47;;;;;;;9.55;66.17;98572.91;5117792;27;42145;-81
2022/02/18 01:59:50;;;;;;;8.50;1.77;;;;;;;9.45;66.15;98558.56;5135044;27;42962;-85
2022/02/18 02:02:18;;;;;;;4.93;2.10;;;;;;;9.53;66.36;98574.78;5135103;27;40671;-85
2022/02/18 02:04:47;;;;;;;4.83;1.30;;;;;;;9.53;66.10;98588.00;5135542;27;41475;-82
2022/02/18 02:07:19;;;;;;;9.30;2.13;;;;;;;9.50;66.14;98587.38;5117555;27;43251;-88
2022/02/18 02:09:48;;;;;;;5.53;1.20;;;;;;;9.46;66.10;98584.06;5134971;27;42190;-84
2022/02/18 02:12:18;;;;;;;7.57;1.50;;;;;;;9.51;66.45;98589.94;5134913;27;41237;-83
2022/02/18 02:14:50;;;;;;;8.50;1.50;;;;;;;9.44;66.19;98572.75;5117759;27;40802;-82
2022/02/18 02:17:21;;;;;;;5.47;1.73;;;;;;;9.54;66.22;98584.44;5117245;27;41680;-87
2022/02/18 02:19:49;;;;;;;11.43;2.23;;;;;;;9.57;66.31;98584.25;5134788;27;42270;-87
2022/02/18 02:22:23;;;;;;;5.87;1.50;;;;;;;9.62;66.38;98589.25;5134717;27;38927;-81
2022/02/18 02:24:51;;;;;;;3.07;1.37;;;;;;;9.62;65.37;98582.16;5131887;27;42626;-82
2022/02/18 02:27:21;;;;;;;4.20;1.10;;;;;;;9.74;65.55;98577.91;5134241;27;43601;-84
2022/02/18 02:29:49;;;;;;;4.00;1.20;;;;;;;9.77;64.93;98580.31;5117585;27;40644;-85
2022/02/18 02:32:18;;;;;;;12.73;1.87;;;;;;;9.82;64.95;98582.69;5134488;27;40732;-81
2022/02/18 02:34:47;;;;;;;4.80;1.47;;;;;;;9.70;65.26;98549.94;5134562;27;41836;-86
2022/02/18 02:37:15;;;;;;;5.70;1.47;;;;;;;9.80;65.26;98563.41;5116945;27;41683;-83
2022/02/18 02:39:45;;;;;;;6.87;1.97;;;;;;;9.81;64.79;98562.47;5117174;27;41543;-84
2022/02/18 02:42:15;;;;;;;6.87;1.53;;;;;;;9.78;64.98;98555.59;5116830;27;41778;-84
2022/02/18 02:44:47;;;;;;;7.23;0.90;;;;;;;9.70;64.74;98540.22;5116517;27;41552;-80
2022/02/18 02:47:19;;;;;;;5.77;1.37;;;;;;;9.76;65.07;98546.94;5116562;27;41623;-81
2022/02/18 02:49:47;;;;;;;4.73;1.20;;;;;;;9.71;65.29;98528.69;5134565;27;43167;-81
2022/02/18 02:52:15;;;;;;;5.57;1.70;;;;;;;9.66;65.23;98537.84;5116655;27;40477;-85
2022/02/18 10:04:03;;;;;;;6.80;1.00;;;;;;;9.67;88.45;97939.44;5100618;27;40524;-83
2022/02/18 10:06:31;;;;;;;0.60;0.60;;;;;;;10.07;85.83;97939.97;5111161;27;42479;-83
2022/02/18 10:08:59;;;;;;;2.40;1.10;;;;;;;10.32;84.05;97937.19;5110302;27;41081;-80
2022/02/18 10:11:28;;;;;;;5.60;1.37;;;;;;;10.53;82.66;97932.03;5128501;27;40745;-82
2022/02/18 10:13:56;;;;;;;1.50;1.00;;;;;;;10.43;81.71;97886.91;5110541;27;40921;-82
2022/02/18 10:16:25;;;;;;;7.17;1.20;;;;;;;10.75;80.78;97916.19;5128039;27;43541;-79
2022/02/18 10:18:54;;;;;;;1.50;1.00;;;;;;;10.87;80.39;97911.75;5110538;27;41092;-83
2022/02/18 10:21:23;;;;;;;1.03;0.90;;;;;;;10.96;79.78;97911.00;5111054;27;38868;-82
2022/02/18 10:23:51;;;;;;;2.10;1.17;;;;;;;11.07;79.25;97889.81;5127390;27;42648;-84
2022/02/18 10:26:38;;;;;;;5.43;1.37;;;;;;;11.34;79.09;97893.88;5110808;27;41868;-81
2022/02/18 10:29:08;;;;;;;3.33;0.93;;;;;;;11.53;78.22;97902.84;5109604;27;42062;-88
2022/02/18 10:31:36;;;;;;;4.33;1.23;;;;;;;11.71;77.70;97897.84;5128034;27;39591;-84
2022/02/18 10:34:05;;;;;;;3.43;0.93;;;;;;;11.93;77.47;97885.47;5110078;27;42890;-85
2022/02/18 10:36:37;;;;;;;3.43;0.87;;;;;;;12.16;76.65;97884.38;5128579;27;42477;-83
2022/02/18 10:39:44;;;;;;;1.30;0.60;;;;;;;12.37;76.10;97879.91;5109810;27;42277;-89
2022/02/18 10:42:11;;;;;;;1.73;0.70;;;;;;;12.26;75.58;97834.84;5106816;28;39037;-81
2022/02/18 10:44:40;;;;;;;2.83;1.13;;;;;;;12.54;75.23;97866.03;5105288;27;41844;-84
2022/02/18 10:47:21;;;;;;;2.67;1.30;;;;;;;12.66;74.93;97853.50;5109821;27;44058;-83
2022/02/18 10:49:48;;;;;;;3.50;0.80;;;;;;;12.69;74.91;97847.09;5109993;27;42106;-83
2022/02/18 10:52:18;;;;;;;1.97;0.63;;;;;;;12.81;74.68;97846.03;5123676;27;41549;-80
2022/02/18 10:54:47;;;;;;;1.87;1.03;;;;;;;12.80;74.32;97815.13;5127027;27;40877;-79
2022/02/18 10:57:20;;;;;;;3.13;1.00;;;;;;;13.05;74.27;97838.53;5126831;27;42705;-80
2022/02/18 10:59:50;;;;;;;2.57;0.70;;;;;;;13.24;73.60;97833.28;5126173;27;42957;-80
2022/02/18 11:02:38;;;;;;;2.93;0.90;;;;;;;13.40;73.07;97826.59;5109185;27;41047;-80
2022/02/18 11:05:25;;;;;;;0.93;0.93;;;;;;;13.43;72.21;97797.91;5123643;27;41389;-83
2022/02/18 11:07:53;;;;;;;3.23;0.60;;;;;;;13.61;72.36;97800.69;5116484;27;43082;-82
2022/02/18 11:10:34;;;;;;;2.67;0.70;;;;;;;13.88;71.14;97800.81;5112872;28;42803;-80
2022/02/18 11:13:02;;;;;;;1.33;0.67;;;;;;;14.16;70.79;97790.28;5092496;28;38643;-81
2022/02/18 11:15:33;;;;;;;1.90;0.70;;;;;;;14.46;69.87;97771.44;5092652;28;41701;-82
2022/02/18 11:18:01;;;;;;;3.63;0.80;;;;;;;14.65;68.07;97766.00;5092362;28;42964;-80
2022/02/18 11:20:28;;;;;;;1.43;0.90;;;;;;;15.33;67.08;97779.72;5095873;28;41236;-84
2022/02/18 11:22:58;;;;;;;1.77;0.73;;;;;;;15.69;65.78;97769.94;5112457;28;40180;-83
2022/02/18 11:25:26;;;;;;;1.70;0.97;;;;;;;15.75;64.41;97757.78;5108984;28;42803;-83
2022/02/18 11:27:54;;;;;;;1.23;0.80;;;;;;;15.87;64.96;97756.56;5092456;28;44316;-78
2022/02/18 11:30:22;;;;;;;1.57;0.70;;;;;;;15.88;64.50;97741.38;5098547;28;42310;-80
2022/02/18 11:33:06;;;;;;;0.67;0.40;;;;;;;15.78;63.83;97728.13;5095983;28;39951;-82
2022/02/18 11:35:52;;;;;;;1.30;0.60;;;;;;;15.56;63.79;97699.28;5095647;28;41010;-81
2022/02/18 11:42:05;;;;;;;2.50;0.60;;;;;;;15.76;63.51;97690.06;5089894;28;42824;-80
2022/02/18 11:44:34;;;;;;;2.23;0.57;;;;;;;15.90;63.82;97691.31;5095159;28;38834;-82
2022/02/18 11:47:13;;;;;;;2.33;0.70;;;;;;;16.06;62.96;97676.25;5112723;28;40863;-85
2022/02/18 11:49:43;;;;;;;0.80;0.60;;;;;;;16.02;62.36;97669.53;5095862;28;42135;-86
2022/02/18 11:52:25;;;;;;;2.87;0.70;;;;;;;16.01;61.66;97641.16;5095785;28;41269;-83
2022/02/18 11:54:53;;;;;;;2.10;0.77;;;;;;;16.28;61.53;97668.66;5112225;28;38571;-86
2022/02/18 11:57:22;;;;;;;2.57;0.60;;;;;;;16.19;61.26;97618.88;5113435;28;41981;-82
2022/02/18 11:59:58;;;;;;;1.30;0.70;;;;;;;16.47;60.84;97631.81;5095530;28;42854;-83
2022/02/18 12:02:37;;;;;;;1.93;0.97;;;;;;;16.92;60.40;97648.50;5095781;28;41001;-86
2022/02/18 12:05:09;;;;;;;1.57;0.60;;;;;;;17.52;58.85;97649.84;5110350;28;40863;-81
2022/02/18 12:07:39;;;;;;;2.33;0.73;;;;;;;18.50;56.67;97649.59;5095419;28;43498;-84
2022/02/18 12:10:11;;;;;;;0.50;0.50;;;;;;;19.05;54.55;97653.97;5110757;28;43876;-79
2022/02/18 12:12:40;;;;;;;0.80;0.80;;;;;;;19.92;52.23;97644.53;5113468;28;41892;-82
2022/02/18 12:15:13;;;;;;;0.97;0.60;;;;;;;20.79;50.87;97678.63;5112033;28;39053;-81
2022/02/18 12:17:42;;;;;;;0.70;0.43;;;;;;;21.69;47.83;97680.81;5113370;28;41462;-80
2022/02/18 12:20:14;;;;;;;1.17;0.97;;;;;;;24.24;44.74;97689.25;5110572;27;42697;-82
2022/02/18 12:22:42;;;;;;;1.50;0.50;;;;;;;26.54;38.15;97707.94;5109016;28;42959;-90
2022/02/18 12:25:19;;;;;;;1.33;0.80;;;;;;;29.25;34.33;97715.38;5094338;28;39049;-86
2022/02/18 12:27:49;;;;;;;1.33;0.70;;;;;;;30.79;31.51;97734.97;5095962;28;41857;-83
2022/02/18 12:30:53;;;;;;;1.17;0.50;;;;;;;30.14;30.88;97727.44;5095724;28;41826;-84
2022/02/18 12:36:09;;;;;;;0.80;0.67;;;;;;;26.30;35.53;97674.34;5074606;28;38897;-85
2022/02/18 12:38:41;;;;;;;1.20;0.60;;;;;;;24.87;37.07;97666.97;5073858;28;41343;-83
2022/02/18 12:41:11;;;;;;;1.73;0.67;;;;;;;23.52;39.71;97629.78;5074776;28;42924;-84
2022/02/18 12:43:41;;;;;;;0.80;0.60;;;;;;;22.38;41.74;97589.19;5098241;28;43129;-82
2022/02/18 12:46:12;;;;;;;0.93;0.80;;;;;;;21.79;43.46;97578.88;5094696;28;38896;-84
2022/02/18 12:48:42;;;;;;;1.10;0.50;;;;;;;21.10;44.85;97586.84;5094176;28;40944;-85
2022/02/18 12:51:14;;;;;;;1.93;0.67;;;;;;;20.55;46.33;97574.03;5108355;28;43571;-83
2022/02/18 12:53:46;;;;;;;0.53;0.50;;;;;;;20.08;46.76;97555.66;5089745;28;42590;-86
2022/02/18 12:56:18;;;;;;;1.53;0.50;;;;;;;19.93;47.50;97542.22;5074167;28;38967;-83
2022/02/18 12:58:54;;;;;;;0.40;0.40;;;;;;;19.93;48.32;97560.22;5098424;28;40508;-79
2022/02/18 13:01:23;;;;;;;0.80;0.50;;;;;;;19.61;48.31;97532.72;5109096;28;43810;-83
2022/02/18 13:03:51;;;;;;;0.63;0.50;;;;;;;19.54;49.51;97539.81;5107606;28;42404;-81
2022/02/18 13:06:20;;;;;;;0.57;0.50;;;;;;;19.33;49.97;97535.16;5074673;28;38964;-84
2022/02/18 13:08:55;;;;;;;1.70;0.63;;;;;;;18.93;50.06;97501.47;5082374;28;40829;-86
2022/02/18 13:11:43;;;;;;;1.60;0.60;;;;;;;18.88;50.80;97514.63;5094069;28;43048;-85
2022/02/18 13:14:31;;;;;;;1.67;1.00;;;;;;;18.43;50.64;97493.97;5093923;28;42434;-84
2022/02/18 13:16:59;;;;;;;0.93;0.83;;;;;;;18.46;51.34;97514.22;5094138;28;40220;-82
2022/02/18 13:19:46;;;;;;;0.47;0.47;;;;;;;18.21;51.70;97517.06;5093816;28;42203;-81
2022/02/18 13:22:35;;;;;;;0.57;0.53;;;;;;;17.91;52.64;97500.00;5098345;28;42370;-79
2022/02/18 13:25:23;;;;;;;0.90;0.40;;;;;;;17.82;52.42;97505.53;5100190;28;41410;-79
2022/02/18 13:27:52;;;;;;;0.70;0.50;;;;;;;17.64;52.73;97505.81;5097347;28;40229;-82
2022/02/18 13:30:23;;;;;;;1.17;0.47;;;;;;;17.48;53.20;97493.28;5096922;28;41082;-85
2022/02/18 13:33:16;;;;;;;1.43;0.80;;;;;;;17.13;53.19;97419.63;5088903;28;43607;-83
2022/02/18 13:35:53;;;;;;;1.87;0.50;;;;;;;17.51;53.00;97465.31;5077879;28;43487;-87
2022/02/18 13:38:25;;;;;;;0.50;0.50;;;;;;;17.29;52.71;97442.84;5093365;28;41740;-86
2022/02/18 13:41:15;;;;;;;0.40;0.40;;;;;;;17.45;52.89;97452.63;5094766;28;41755;-83
2022/02/18 13:46:36;;;;;;;0.70;0.50;;;;;;;17.27;53.22;97444.84;5092749;28;40948;-83
2022/02/18 13:49:06;;;;;;;0.50;0.50;;;;;;;17.13;53.71;97435.69;5093227;28;39149;-84
2022/02/18 13:54:52;;;;;;;0.50;0.50;;;;;;;17.17;53.46;97436.19;5092069;28;42205;-85
2022/02/18 13:57:27;;;;;;;0.53;0.50;;;;;;;16.80;53.91;97400.19;5092977;28;43567;-83
2022/02/18 13:59:56;;;;;;;0.80;0.50;;;;;;;16.83;53.61;97381.09;5090161;28;39020;-85
2022/02/18 14:02:23;;;;;;;0.50;0.50;;;;;;;17.24;53.52;97431.81;5092878;28;41036;-90
2022/02/18 14:04:53;;;;;;;0.67;0.40;;;;;;;17.27;53.44;97423.44;5093314;28;42658;-80
2022/02/18 14:07:25;;;;;;;0.70;0.40;;;;;;;17.33;52.82;97435.28;5093238;28;42300;-82
2022/02/18 14:09:57;;;;;;;0.63;0.60;;;;;;;18.49;50.98;97422.75;5110317;28;38840;-83
2022/02/18 14:12:41;;;;;;;2.00;0.60;;;;;;;19.65;47.89;97431.13;5107393;28;41789;-83
2022/02/18 14:15:11;;;;;;;0.80;0.80;;;;;;;19.91;46.67;97444.03;5109967;28;43364;-84
2022/02/18 14:17:42;;;;;;;1.03;0.43;;;;;;;19.79;46.79;97449.06;5093386;28;41695;-89
2022/02/18 14:20:13;;;;;;;1.17;0.60;;;;;;;19.36;47.56;97448.06;5075872;28;40672;-85
2022/02/18 14:22:43;;;;;;;0.87;0.50;;;;;;;18.90;48.53;97442.84;5110510;28;40878;-81
2022/02/18 14:25:28;;;;;;;0.40;0.40;;;;;;;18.32;49.48;97422.03;5091875;28;42459;-80
2022/02/18 14:27:57;;;;;;;1.23;0.70;;;;;;;18.15;50.17;97428.53;5109943;28;41124;-82
2022/02/18 14:30:38;;;;;;;0.73;0.57;;;;;;;17.74;50.78;97423.41;5110029;28;38739;-81
2022/02/18 14:33:07;;;;;;;2.67;0.70;;;;;;;17.71;51.15;97413.06;5109859;28;41761;-81
2022/02/18 14:35:41;;;;;;;0.47;0.47;;;;;;;17.46;51.79;97409.63;5092779;28;44625;-80
2022/02/18 14:38:09;;;;;;;0.40;0.40;;;;;;;17.42;52.17;97397.63;5092664;28;41661;-80
2022/02/18 14:40:42;;;;;;;0.90;0.50;;;;;;;17.70;52.18;97406.03;5110399;28;40862;-80
2022/02/18 14:43:10;;;;;;;0.77;0.60;;;;;;;17.92;51.61;97409.78;5111574;27;41982;-81
2022/02/18 14:45:38;;;;;;;2.20;0.80;;;;;;;17.98;50.96;97398.34;5110284;28;42454;-84
2022/02/18 14:48:09;;;;;;;0.53;0.50;;;;;;;18.08;50.34;97424.88;5093355;28;43210;-83
2022/02/18 14:50:40;;;;;;;2.37;0.40;;;;;;;18.12;50.47;97410.97;5076265;28;39231;-80
2022/02/18 14:53:10;;;;;;;0.53;0.50;;;;;;;18.04;50.81;97416.38;5096829;28;41616;-85
2022/02/18 14:55:40;;;;;;;0.40;0.40;;;;;;;17.82;50.53;97383.19;5112753;28;42774;-84
2022/02/18 14:58:09;;;;;;;0.50;0.50;;;;;;;17.49;51.00;97360.28;5095640;28;40890;-84
2022/02/18 15:00:37;;;;;;;0.50;0.50;;;;;;;17.38;51.21;97380.25;5095865;28;38993;-83
2022/02/18 15:03:06;;;;;;;0.43;0.43;;;;;;;17.19;52.13;97388.66;5095609;28;43309;-82
2022/02/18 15:05:39;;;;;;;1.07;0.47;;;;;;;17.09;52.18;97385.38;5111500;27;41769;-82
2022/02/18 15:08:07;;;;;;;2.20;0.50;;;;;;;16.84;52.38;97372.06;5095397;28;40871;-82
2022/02/18 15:10:36;;;;;;;0.90;0.90;;;;;;;16.72;53.13;97362.75;5096113;28;39850;-81
2022/02/18 15:13:06;;;;;;;0.37;0.37;;;;;;;16.49;54.21;97367.09;5112911;28;40419;-80
2022/02/18 15:18:46;;;;;;;0.70;0.70;;;;;;;16.04;54.44;97325.75;5094160;28;42204;-83
2022/02/18 15:21:14;;;;;;;0.70;0.70;;;;;;;15.91;54.68;97328.09;5096253;28;38681;-82
2022/02/18 15:23:43;;;;;;;0.63;0.43;;;;;;;15.86;55.07;97338.41;5079370;28;40734;-81
2022/02/18 15:26:13;;;;;;;0.87;0.60;;;;;;;15.89;55.20;97342.59;5113387;28;43251;-82
2022/02/18 15:28:46;;;;;;;0.60;0.60;;;;;;;15.72;55.50;97344.41;5110737;28;43440;-85
2022/02/18 15:36:55;;;;;;;0.50;0.50;;;;;;;15.33;56.17;97312.94;5069718;28;42155;-84
2022/02/18 15:42:49;;;;;;;0.80;0.60;;;;;;;15.48;55.96;97301.63;5094780;28;41186;-84
2022/02/18 15:45:19;;;;;;;0.63;0.57;;;;;;;15.29;56.18;97271.63;5095281;28;41406;-84
2022/02/18 15:47:48;;;;;;;0.70;0.60;;;;;;;15.30;55.98;97262.63;5095299;28;41502;-80
2022/02/18 15:50:19;;;;;;;0.67;0.53;;;;;;;15.26;56.00;97250.59;5095701;28;41776;-81
2022/02/18 15:52:48;;;;;;;1.53;0.50;;;;;;;15.32;56.27;97275.78;5095224;28;40676;-83
2022/02/18 15:55:22;;;;;;;0.40;0.40;;;;;;;15.21;56.00;97271.59;5074609;28;40624;-84
2022/02/18 15:57:51;;;;;;;0.83;0.67;;;;;;;14.97;56.47;97251.03;5073468;28;43449;-83
2022/02/18 16:03:06;;;;;;;0.57;0.57;;;;;;;14.98;56.81;97275.84;5110934;28;41535;-83
2022/02/18 16:05:44;;;;;;;1.03;0.67;;;;;;;14.88;56.38;97267.16;5078431;28;41868;-87
2022/02/18 16:08:12;;;;;;;0.50;0.50;;;;;;;14.82;56.90;97251.84;5094149;28;43391;-83
2022/02/18 16:19:03;;;;;;;0.40;0.40;;;;;;;14.71;56.88;97213.81;5093568;28;42694;-82
2022/02/18 16:21:32;;;;;;;1.30;0.67;;;;;;;14.72;56.49;97223.47;5094761;28;42095;-82
2022/02/18 16:24:00;;;;;;;0.70;0.70;;;;;;;14.71;56.75;97224.47;5111795;28;38885;-84
2022/02/18 16:26:29;;;;;;;0.97;0.60;;;;;;;14.59;57.35;97236.41;5094467;28;42517;-83
2022/02/18 16:28:58;;;;;;;1.03;0.77;;;;;;;14.52;57.31;97232.72;5112904;28;42592;-81
2022/02/18 16:31:25;;;;;;;1.00;0.50;;;;;;;14.57;57.37;97238.41;5111925;28;42537;-87
2022/02/18 16:33:53;;;;;;;0.67;0.67;;;;;;;14.60;57.46;97216.75;5111448;28;38898;-81
2022/02/18 16:36:21;;;;;;;1.20;0.80;;;;;;;14.53;57.59;97209.59;5094923;28;40856;-83
2022/02/18 16:38:51;;;;;;;1.60;0.43;;;;;;;14.63;57.45;97232.44;5094403;28;41715;-84
2022/02/18 16:41:19;;;;;;;0.60;0.50;;;;;;;14.54;57.76;97241.41;5112307;28;42249;-85
2022/02/18 16:43:47;;;;;;;0.40;0.40;;;;;;;14.50;57.89;97209.91;5094169;28;40568;-81
2022/02/18 16:46:15;;;;;;;0.70;0.70;;;;;;;14.52;57.96;97211.41;5094510;28;40963;-80
2022/02/18 16:54:51;;;;;;;0.50;0.50;;;;;;;14.55;57.78;97202.28;5093788;28;39696;-83
2022/02/18 16:57:38;;;;;;;1.37;0.60;;;;;;;14.59;58.40;97193.78;5094011;28;42755;-85
2022/02/18 17:00:19;;;;;;;0.50;0.50;;;;;;;14.53;57.76;97180.28;5093734;28;44302;-85
2022/02/18 17:02:46;;;;;;;0.57;0.57;;;;;;;14.64;58.10;97198.63;5094184;28;43724;-79
2022/02/18 17:05:18;;;;;;;1.00;0.60;;;;;;;14.45;58.05;97178.44;5106540;27;40240;-80
2022/02/18 17:07:45;;;;;;;0.60;0.60;;;;;;;14.35;58.14;97164.38;5111062;28;43637;-78
2022/02/18 17:10:18;;;;;;;0.53;0.50;;;;;;;14.62;58.43;97211.28;5111075;28;43440;-83
2022/02/18 17:12:47;;;;;;;0.63;0.60;;;;;;;14.67;57.92;97222.31;5103595;28;42219;-86
2022/02/18 17:15:32;;;;;;;0.63;0.50;;;;;;;14.59;58.20;97211.59;5090535;28;38980;-86
2022/02/18 17:18:00;;;;;;;0.70;0.70;;;;;;;14.33;58.08;97177.03;5074914;28;42427;-89
2022/02/18 17:20:35;;;;;;;0.60;0.60;;;;;;;14.58;58.27;97191.31;5094390;28;43441;-84
2022/02/18 17:23:04;;;;;;;1.70;0.67;;;;;;;14.67;58.88;97195.66;5093174;28;41902;-83
2022/02/18 17:25:33;;;;;;;0.60;0.60;;;;;;;14.50;59.87;97172.63;5111167;28;40445;-83
2022/02/18 17:28:01;;;;;;;0.50;0.50;;;;;;;14.50;60.66;97183.25;5093600;28;42588;-84
2022/02/18 17:30:29;;;;;;;0.40;0.40;;;;;;;14.15;61.38;97162.97;5094544;28;41695;-86
2022/02/18 17:32:58;;;;;;;0.60;0.60;;;;;;;14.21;61.36;97183.63;5093355;28;42253;-83
2022/02/18 17:35:26;;;;;;;0.60;0.57;;;;;;;14.07;62.14;97165.59;5094254;28;38896;-86
2022/02/18 17:37:54;;;;;;;0.67;0.50;;;;;;;14.17;62.36;97172.47;5092922;28;43638;-79
2022/02/18 17:40:21;;;;;;;0.40;0.40;;;;;;;14.22;62.96;97191.44;5110952;28;42697;-85
2022/02/18 17:42:50;;;;;;;0.77;0.77;;;;;;;14.15;63.62;97210.88;5110248;28;42563;-80
2022/02/18 17:45:18;;;;;;;0.77;0.50;;;;;;;14.05;64.71;97226.13;5073947;28;39113;-80
2022/02/18 17:47:49;;;;;;;1.50;0.77;;;;;;;13.89;69.66;97294.22;5084611;28;40541;-81
2022/02/18 17:50:17;;;;;;;0.80;0.70;;;;;;;13.46;72.80;97363.31;5073968;28;41911;-83
2022/02/18 17:52:45;;;;;;;0.87;0.40;;;;;;;12.72;70.57;97411.22;5073832;28;42148;-81
2022/02/18 17:55:13;;;;;;;0.30;0.30;;;;;;;11.96;70.68;97423.59;5073700;28;39809;-81
2022/02/18 17:57:40;;;;;;;0.30;0.30;;;;;;;11.39;72.09;97451.66;5088463;28;42218;-82
2022/02/18 18:00:10;;;;;;;2.30;0.33;;;;;;;11.02;71.51;97441.63;5091138;28;42063;-80
2022/02/18 18:02:41;;;;;;;0.93;0.30;;;;;;;10.62;72.06;97433.66;5098441;28;41983;-82
2022/02/18 18:05:09;;;;;;;0.37;0.37;;;;;;;10.43;71.07;97444.09;5111979;28;39898;-81
2022/02/18 18:07:37;;;;;;;1.00;0.40;;;;;;;10.10;71.87;97439.81;5111925;28;42008;-81
2022/02/18 18:10:05;;;;;;;1.50;0.30;;;;;;;10.08;71.62;97458.44;5111120;28;42842;-81
2022/02/18 18:12:33;;;;;;;0.30;0.30;;;;;;;9.94;70.13;97465.81;5094226;28;42343;-78
2022/02/18 18:15:00;;;;;;;0.20;0.20;;;;;;;9.72;69.29;97457.00;5110819;28;40404;-78
2022/02/18 18:17:30;;;;;;;0.50;0.30;;;;;;;9.83;70.10;97461.44;5113686;28;42669;-79
2022/02/18 18:19:57;;;;;;;0.23;0.23;;;;;;;9.88;68.61;97466.34;5097355;28;41600;-80
2022/02/18 18:22:28;;;;;;;0.50;0.50;;;;;;;9.95;67.29;97484.22;5114867;28;40911;-81
2022/02/18 18:24:56;;;;;;;0.40;0.40;;;;;;;10.00;67.06;97482.06;5098533;28;40132;-81
2022/02/18 18:27:23;;;;;;;0.20;0.20;;;;;;;9.98;66.33;97493.72;5115131;28;40782;-79
2022/02/18 18:29:51;;;;;;;0.40;0.30;;;;;;;10.09;65.97;97502.44;5094513;28;41631;-80
2022/02/18 18:32:19;;;;;;;0.30;0.30;;;;;;;10.12;64.75;97506.66;5095584;28;42043;-80
2022/02/18 18:34:48;;;;;;;0.20;0.20;;;;;;;10.14;64.27;97515.28;5095764;28;40012;-80
2022/02/18 18:37:15;;;;;;;1.17;0.40;;;;;;;10.04;63.04;97509.06;5093968;28;40359;-80
2022/02/18 18:39:43;;;;;;;0.97;0.40;;;;;;;10.15;62.26;97532.81;5094262;28;45329;-80
2022/02/18 18:42:12;;;;;;;0.40;0.30;;;;;;;10.18;61.80;97544.97;5095005;28;43125;-80
2022/02/18 18:44:39;;;;;;;0.53;0.40;;;;;;;10.17;60.93;97545.94;5077324;28;39192;-80
2022/02/18 18:47:07;;;;;;;0.30;0.30;;;;;;;10.17;60.98;97535.34;5077576;28;40941;-81
2022/02/18 18:49:35;;;;;;;0.83;0.40;;;;;;;10.16;61.51;97507.22;5094445;28;43616;-81
2022/02/18 18:52:04;;;;;;;0.67;0.40;;;;;;;10.22;59.62;97547.28;5094131;28;42240;-81
2022/02/18 18:54:31;;;;;;;1.37;0.43;;;;;;;10.27;58.94;97542.44;5077295;28;38690;-80
2022/02/18 18:56:59;;;;;;;0.93;0.70;;;;;;;10.17;59.56;97508.91;5093215;28;42126;-79
2022/02/18 18:59:27;;;;;;;0.33;0.30;;;;;;;10.29;59.72;97550.25;5095221;28;42602;-80
2022/02/18 19:01:55;;;;;;;0.83;0.27;;;;;;;10.31;58.22;97554.47;5093948;28;42418;-81
2022/02/18 19:04:22;;;;;;;0.30;0.30;;;;;;;10.35;58.46;97565.63;5095863;28;42113;-80
2022/02/18 19:06:50;;;;;;;1.73;0.50;;;;;;;10.37;58.19;97569.00;5114513;28;41515;-79
2022/02/18 19:09:19;;;;;;;0.20;0.20;;;;;;;10.34;58.47;97562.16;5114574;28;42745;-78
2022/02/18 19:11:46;;;;;;;0.47;0.40;;;;;;;10.25;58.54;97551.50;5097253;28;42317;-78
2022/02/18 19:14:14;;;;;;;0.30;0.30;;;;;;;10.23;58.49;97562.19;5096600;28;40362;-78
2022/02/18 19:16:42;;;;;;;0.30;0.30;;;;;;;10.33;58.41;97584.28;5097365;28;42322;-79
2022/02/18 19:19:09;;;;;;;0.37;0.33;;;;;;;10.15;58.45;97564.56;5096806;28;42766;-81
2022/02/18 19:21:39;;;;;;;0.50;0.40;;;;;;;10.30;57.90;97605.69;5113294;28;42322;-80
2022/02/18 19:24:08;;;;;;;0.37;0.37;;;;;;;10.27;57.73;97595.34;5096390;28;39212;-79
2022/02/18 19:26:38;;;;;;;1.10;0.50;;;;;;;10.28;57.25;97623.50;5114460;28;41917;-78
2022/02/18 19:29:07;;;;;;;0.23;0.23;;;;;;;10.35;57.04;97624.69;5096388;28;41702;-79
2022/02/18 19:31:39;;;;;;;0.33;0.33;;;;;;;10.32;56.88;97609.06;5096807;28;42497;-80
2022/02/18 19:34:06;;;;;;;0.40;0.40;;;;;;;10.33;57.34;97613.38;5096465;28;40073;-80
2022/02/18 19:36:34;;;;;;;1.87;0.67;;;;;;;10.12;57.61;97570.13;5096436;28;41382;-79
2022/02/18 19:39:02;;;;;;;2.30;0.67;;;;;;;10.34;56.97;97633.59;5114480;28;42837;-81
2022/02/18 19:41:30;;;;;;;1.07;0.50;;;;;;;10.34;57.29;97638.06;5096456;28;41230;-80
2022/02/18 19:44:02;;;;;;;1.30;0.60;;;;;;;10.37;56.24;97645.75;5113302;28;40917;-79